sensor_id;sensor_type;location;lat;lon;timestamp;pressure;altitude;pressure_sealevel;temperature;humidity
68793;BME280;55778;54.346;10.210;2022-07-24T00:01:27;101644.22;;;11.43;84.30
68793;BME280;55778;54.346;10.210;2022-07-24T00:03:53;101647.56;;;11.46;84.10
68793;BME280;55778;54.346;10.210;2022-07-24T00:06:18;101648.63;;;11.55;83.46
68793;BME280;55778;54.346;10.210;2022-07-24T00:08:44;101644.06;;;11.55;83.49
68793;BME280;55778;54.346;10.210;2022-07-24T00:11:12;101635.16;;;11.42;84.00
68793;BME280;55778;54.346;10.210;2022-07-24T00:13:38;101637.19;;;11.29;85.24
68793;BME280;55778;54.346;10.210;2022-07-24T00:16:04;101627.53;;;11.25;85.17
68793;BME280;55778;54.346;10.210;2022-07-24T00:18:29;101634.16;;;11.12;86.05
68793;BME280;55778;54.346;10.210;2022-07-24T00:20:56;101625.84;;;11.13;85.67
68793;BME280;55778;54.346;10.210;2022-07-24T00:23:21;101631.03;;;11.16;85.02
68793;BME280;55778;54.346;10.210;2022-07-24T00:25:48;101629.34;;;11.04;86.28
68793;BME280;55778;54.346;10.210;2022-07-24T00:28:14;101628.59;;;11.02;86.63
68793;BME280;55778;54.346;10.210;2022-07-24T00:30:39;101628.88;;;10.99;86.83
68793;BME280;55778;54.346;10.210;2022-07-24T00:33:05;101634.56;;;10.96;87.21
68793;BME280;55778;54.346;10.210;2022-07-24T00:35:30;101629.25;;;10.95;86.97
68793;BME280;55778;54.346;10.210;2022-07-24T00:37:56;101629.97;;;10.97;87.07
68793;BME280;55778;54.346;10.210;2022-07-24T00:40:21;101637.19;;;10.87;86.74
68793;BME280;55778;54.346;10.210;2022-07-24T00:42:47;101634.97;;;10.81;87.70
68793;BME280;55778;54.346;10.210;2022-07-24T00:45:12;101632.59;;;10.76;87.72
68793;BME280;55778;54.346;10.210;2022-07-24T00:47:41;101634.22;;;10.79;87.42
68793;BME280;55778;54.346;10.210;2022-07-24T00:50:06;101633.50;;;10.77;87.62
68793;BME280;55778;54.346;10.210;2022-07-24T00:52:32;101633.50;;;10.77;87.50
68793;BME280;55778;54.346;10.210;2022-07-24T00:54:58;101629.75;;;10.78;88.08
68793;BME280;55778;54.346;10.210;2022-07-24T00:57:23;101629.25;;;10.73;87.90
68793;BME280;55778;54.346;10.210;2022-07-24T00:59:48;101627.03;;;10.78;87.57
68793;BME280;55778;54.346;10.210;2022-07-24T01:02:14;101627.16;;;10.76;87.56
68793;BME280;55778;54.346;10.210;2022-07-24T01:04:39;101625.28;;;10.88;87.04
68793;BME280;55778;54.346;10.210;2022-07-24T01:07:06;101620.81;;;10.76;86.89
68793;BME280;55778;54.346;10.210;2022-07-24T01:09:32;101628.78;;;10.68;87.09
68793;BME280;55778;54.346;10.210;2022-07-24T01:12:02;101638.56;;;10.70;86.59
68793;BME280;55778;54.346;10.210;2022-07-24T01:14:28;101627.78;;;10.69;86.66
68793;BME280;55778;54.346;10.210;2022-07-24T01:16:54;101624.97;;;10.59;87.47
68793;BME280;55778;54.346;10.210;2022-07-24T01:19:19;101632.00;;;10.62;87.12
68793;BME280;55778;54.346;10.210;2022-07-24T01:21:47;101638.84;;;10.56;87.67
68793;BME280;55778;54.346;10.210;2022-07-24T01:24:13;101636.47;;;10.52;87.92
68793;BME280;55778;54.346;10.210;2022-07-24T01:26:38;101639.69;;;10.68;88.31
68793;BME280;55778;54.346;10.210;2022-07-24T01:29:04;101641.38;;;10.91;88.02
68793;BME280;55778;54.346;10.210;2022-07-24T01:31:29;101639.03;;;10.97;86.92
68793;BME280;55778;54.346;10.210;2022-07-24T01:33:54;101627.47;;;11.05;86.59
68793;BME280;55778;54.346;10.210;2022-07-24T01:36:20;101630.34;;;10.92;86.59
68793;BME280;55778;54.346;10.210;2022-07-24T01:38:45;101635.22;;;10.89;86.97
68793;BME280;55778;54.346;10.210;2022-07-24T01:41:11;101638.19;;;10.86;86.57
68793;BME280;55778;54.346;10.210;2022-07-24T01:43:40;101637.56;;;10.82;87.08
68793;BME280;55778;54.346;10.210;2022-07-24T01:46:05;101625.41;;;10.86;86.74
68793;BME280;55778;54.346;10.210;2022-07-24T01:48:33;101632.09;;;10.71;87.35
68793;BME280;55778;54.346;10.210;2022-07-24T01:50:58;101629.63;;;10.68;87.04
68793;BME280;55778;54.346;10.210;2022-07-24T01:53:24;101622.34;;;10.80;86.65
68793;BME280;55778;54.346;10.210;2022-07-24T01:55:51;101633.88;;;10.72;87.18
68793;BME280;55778;54.346;10.210;2022-07-24T01:58:16;101635.22;;;10.56;87.85
68793;BME280;55778;54.346;10.210;2022-07-24T02:00:42;101631.16;;;10.50;88.16
68793;BME280;55778;54.346;10.210;2022-07-24T02:03:07;101628.31;;;10.52;88.48
68793;BME280;55778;54.346;10.210;2022-07-24T02:05:33;101621.09;;;10.51;88.49
68793;BME280;55778;54.346;10.210;2022-07-24T02:07:59;101630.50;;;10.69;87.51
68793;BME280;55778;54.346;10.210;2022-07-24T02:10:27;101624.69;;;10.84;86.69
68793;BME280;55778;54.346;10.210;2022-07-24T02:12:53;101631.72;;;10.76;86.46
68793;BME280;55778;54.346;10.210;2022-07-24T02:15:19;101629.53;;;10.59;87.36
68793;BME280;55778;54.346;10.210;2022-07-24T02:17:50;101631.28;;;10.49;87.97
68793;BME280;55778;54.346;10.210;2022-07-24T02:20:16;101627.28;;;10.42;88.83
68793;BME280;55778;54.346;10.210;2022-07-24T02:22:42;101624.22;;;10.35;88.98
68793;BME280;55778;54.346;10.210;2022-07-24T02:25:08;101627.66;;;10.37;88.80
68793;BME280;55778;54.346;10.210;2022-07-24T02:27:34;101633.22;;;10.36;88.62
68793;BME280;55778;54.346;10.210;2022-07-24T02:29:59;101641.41;;;10.25;89.19
68793;BME280;55778;54.346;10.210;2022-07-24T02:32:25;101638.31;;;10.40;88.24
68793;BME280;55778;54.346;10.210;2022-07-24T02:34:51;101642.06;;;10.50;87.84
68793;BME280;55778;54.346;10.210;2022-07-24T02:37:16;101639.06;;;10.42;88.41
68793;BME280;55778;54.346;10.210;2022-07-24T02:39:42;101637.09;;;10.44;88.74
68793;BME280;55778;54.346;10.210;2022-07-24T02:42:08;101619.75;;;10.56;87.54
68793;BME280;55778;54.346;10.210;2022-07-24T02:44:33;101622.22;;;10.48;88.00
68793;BME280;55778;54.346;10.210;2022-07-24T02:46:59;101630.41;;;10.59;87.78
68793;BME280;55778;54.346;10.210;2022-07-24T02:49:24;101626.81;;;10.59;87.63
68793;BME280;55778;54.346;10.210;2022-07-24T02:51:49;101631.03;;;10.41;88.20
68793;BME280;55778;54.346;10.210;2022-07-24T02:54:15;101638.94;;;10.33;89.07
68793;BME280;55778;54.346;10.210;2022-07-24T02:56:43;101640.28;;;10.27;89.63
68793;BME280;55778;54.346;10.210;2022-07-24T02:59:08;101640.06;;;10.41;89.76
68793;BME280;55778;54.346;10.210;2022-07-24T03:01:34;101634.34;;;10.55;89.48
68793;BME280;55778;54.346;10.210;2022-07-24T03:03:59;101632.22;;;10.70;88.65
68793;BME280;55778;54.346;10.210;2022-07-24T03:06:24;101638.81;;;10.67;88.39
68793;BME280;55778;54.346;10.210;2022-07-24T03:08:50;101632.88;;;10.51;88.94
68793;BME280;55778;54.346;10.210;2022-07-24T03:11:15;101633.97;;;10.60;88.46
68793;BME280;55778;54.346;10.210;2022-07-24T03:13:41;101640.69;;;10.56;88.67
68793;BME280;55778;54.346;10.210;2022-07-24T03:16:06;101634.13;;;10.36;88.97
68793;BME280;55778;54.346;10.210;2022-07-24T03:18:32;101646.22;;;10.21;89.86
68793;BME280;55778;54.346;10.210;2022-07-24T03:20:57;101640.94;;;10.31;90.34
68793;BME280;55778;54.346;10.210;2022-07-24T03:23:23;101635.84;;;10.37;89.74
68793;BME280;55778;54.346;10.210;2022-07-24T03:25:48;101633.34;;;10.34;89.82
68793;BME280;55778;54.346;10.210;2022-07-24T03:28:17;101630.03;;;10.31;90.12
68793;BME280;55778;54.346;10.210;2022-07-24T03:30:42;101627.66;;;10.37;89.41
68793;BME280;55778;54.346;10.210;2022-07-24T03:33:11;101631.25;;;10.38;89.48
68793;BME280;55778;54.346;10.210;2022-07-24T03:35:36;101622.84;;;10.52;88.77
68793;BME280;55778;54.346;10.210;2022-07-24T03:38:04;101623.22;;;10.47;89.04
68793;BME280;55778;54.346;10.210;2022-07-24T03:40:29;101622.59;;;10.44;89.26
68793;BME280;55778;54.346;10.210;2022-07-24T03:42:55;101615.56;;;10.41;89.06
68793;BME280;55778;54.346;10.210;2022-07-24T03:45:20;101611.56;;;10.34;89.39
68793;BME280;55778;54.346;10.210;2022-07-24T03:47:46;101610.47;;;10.37;89.95
68793;BME280;55778;54.346;10.210;2022-07-24T03:50:11;101619.25;;;10.51;89.14
68793;BME280;55778;54.346;10.210;2022-07-24T03:52:37;101618.88;;;10.56;88.77
68793;BME280;55778;54.346;10.210;2022-07-24T03:55:03;101620.97;;;10.52;89.66
68793;BME280;55778;54.346;10.210;2022-07-24T03:57:29;101628.06;;;10.55;89.86
68793;BME280;55778;54.346;10.210;2022-07-24T03:59:54;101628.66;;;10.58;90.02
68793;BME280;55778;54.346;10.210;2022-07-24T04:02:19;101628.00;;;10.88;88.79
68793;BME280;55778;54.346;10.210;2022-07-24T04:04:45;101630.75;;;10.77;89.48
68793;BME280;55778;54.346;10.210;2022-07-24T04:07:13;101632.59;;;10.87;89.71
68793;BME280;55778;54.346;10.210;2022-07-24T04:09:42;101636.31;;;10.86;89.49
68793;BME280;55778;54.346;10.210;2022-07-24T04:12:07;101631.84;;;10.96;90.04
68793;BME280;55778;54.346;10.210;2022-07-24T04:14:33;101624.38;;;11.09;89.44
68793;BME280;55778;54.346;10.210;2022-07-24T04:16:58;101626.38;;;11.39;88.02
68793;BME280;55778;54.346;10.210;2022-07-24T04:19:24;101607.81;;;11.53;87.21
68793;BME280;55778;54.346;10.210;2022-07-24T04:21:49;101609.91;;;11.61;87.24
68793;BME280;55778;54.346;10.210;2022-07-24T04:24:15;101605.28;;;11.72;86.73
68793;BME280;55778;54.346;10.210;2022-07-24T04:26:40;101598.22;;;11.70;87.36
68793;BME280;55778;54.346;10.210;2022-07-24T04:29:06;101593.34;;;11.73;87.49
68793;BME280;55778;54.346;10.210;2022-07-24T04:31:31;101584.88;;;11.76;87.54
68793;BME280;55778;54.346;10.210;2022-07-24T04:33:57;101590.06;;;11.79;86.98
68793;BME280;55778;54.346;10.210;2022-07-24T04:36:23;101591.75;;;11.91;87.04
68793;BME280;55778;54.346;10.210;2022-07-24T04:38:48;101593.50;;;11.92;86.95
68793;BME280;55778;54.346;10.210;2022-07-24T04:41:13;101595.81;;;11.97;86.56
68793;BME280;55778;54.346;10.210;2022-07-24T04:43:41;101599.53;;;11.96;86.62
68793;BME280;55778;54.346;10.210;2022-07-24T04:46:06;101604.59;;;12.00;87.04
68793;BME280;55778;54.346;10.210;2022-07-24T04:48:34;101611.44;;;12.16;86.25
68793;BME280;55778;54.346;10.210;2022-07-24T04:51:00;101600.25;;;12.19;86.44
68793;BME280;55778;54.346;10.210;2022-07-24T04:53:28;101599.44;;;12.28;86.06
68793;BME280;55778;54.346;10.210;2022-07-24T04:55:56;101593.16;;;12.37;85.80
68793;BME280;55778;54.346;10.210;2022-07-24T04:58:22;101592.59;;;12.43;86.20
68793;BME280;55778;54.346;10.210;2022-07-24T05:00:47;101599.44;;;12.58;85.53
68793;BME280;55778;54.346;10.210;2022-07-24T05:03:12;101607.38;;;12.70;85.34
68793;BME280;55778;54.346;10.210;2022-07-24T05:05:41;101604.81;;;12.78;84.81
68793;BME280;55778;54.346;10.210;2022-07-24T05:08:06;101598.78;;;12.94;84.29
68793;BME280;55778;54.346;10.210;2022-07-24T05:10:32;101599.25;;;12.99;84.31
68793;BME280;55778;54.346;10.210;2022-07-24T05:12:57;101596.72;;;13.07;83.69
68793;BME280;55778;54.346;10.210;2022-07-24T05:15:23;101605.81;;;13.17;82.98
68793;BME280;55778;54.346;10.210;2022-07-24T05:17:48;101607.25;;;13.21;83.19
68793;BME280;55778;54.346;10.210;2022-07-24T05:20:13;101601.19;;;13.27;82.97
68793;BME280;55778;54.346;10.210;2022-07-24T05:22:42;101605.97;;;13.34;82.66
68793;BME280;55778;54.346;10.210;2022-07-24T05:25:07;101602.22;;;13.45;82.81
68793;BME280;55778;54.346;10.210;2022-07-24T05:27:33;101597.16;;;13.59;82.79
68793;BME280;55778;54.346;10.210;2022-07-24T05:29:58;101596.16;;;13.70;81.70
68793;BME280;55778;54.346;10.210;2022-07-24T05:32:24;101597.59;;;13.74;81.75
68793;BME280;55778;54.346;10.210;2022-07-24T05:34:49;101591.81;;;13.86;81.36
68793;BME280;55778;54.346;10.210;2022-07-24T05:37:14;101593.97;;;13.92;81.61
68793;BME280;55778;54.346;10.210;2022-07-24T05:39:40;101592.50;;;14.07;80.97
68793;BME280;55778;54.346;10.210;2022-07-24T05:42:05;101599.41;;;14.12;81.19
68793;BME280;55778;54.346;10.210;2022-07-24T05:44:31;101594.75;;;14.22;80.99
68793;BME280;55778;54.346;10.210;2022-07-24T05:46:56;101606.53;;;14.51;80.59
68793;BME280;55778;54.346;10.210;2022-07-24T05:49:22;101601.78;;;14.70;80.00
68793;BME280;55778;54.346;10.210;2022-07-24T05:51:47;101591.19;;;14.85;78.29
68793;BME280;55778;54.346;10.210;2022-07-24T05:54:12;101594.63;;;14.87;78.97
68793;BME280;55778;54.346;10.210;2022-07-24T05:56:38;101601.75;;;15.07;77.63
68793;BME280;55778;54.346;10.210;2022-07-24T05:59:03;101598.00;;;15.25;77.11
68793;BME280;55778;54.346;10.210;2022-07-24T06:01:28;101598.53;;;15.38;76.06
68793;BME280;55778;54.346;10.210;2022-07-24T06:03:54;101601.66;;;15.43;74.84
68793;BME280;55778;54.346;10.210;2022-07-24T06:06:19;101586.88;;;15.44;74.91
68793;BME280;55778;54.346;10.210;2022-07-24T06:08:45;101594.59;;;15.58;75.00
68793;BME280;55778;54.346;10.210;2022-07-24T06:11:11;101587.53;;;15.56;74.29
68793;BME280;55778;54.346;10.210;2022-07-24T06:13:36;101586.81;;;15.71;73.72
68793;BME280;55778;54.346;10.210;2022-07-24T06:16:02;101583.19;;;15.88;73.18
68793;BME280;55778;54.346;10.210;2022-07-24T06:18:27;101583.22;;;15.96;72.98
68793;BME280;55778;54.346;10.210;2022-07-24T06:20:53;101572.88;;;15.90;72.66
68793;BME280;55778;54.346;10.210;2022-07-24T06:23:18;101574.13;;;15.96;72.54
68793;BME280;55778;54.346;10.210;2022-07-24T06:25:43;101576.75;;;16.06;72.12
68793;BME280;55778;54.346;10.210;2022-07-24T06:28:09;101574.50;;;16.01;71.84
68793;BME280;55778;54.346;10.210;2022-07-24T06:30:34;101573.38;;;16.12;71.41
68793;BME280;55778;54.346;10.210;2022-07-24T06:33:00;101570.69;;;16.20;71.42
68793;BME280;55778;54.346;10.210;2022-07-24T06:35:27;101566.81;;;16.38;70.60
68793;BME280;55778;54.346;10.210;2022-07-24T06:37:55;101567.81;;;16.55;71.14
68793;BME280;55778;54.346;10.210;2022-07-24T06:40:21;101569.41;;;16.65;69.55
68793;BME280;55778;54.346;10.210;2022-07-24T06:42:47;101557.53;;;16.65;69.92
68793;BME280;55778;54.346;10.210;2022-07-24T06:45:15;101566.81;;;17.05;67.28
68793;BME280;55778;54.346;10.210;2022-07-24T06:47:41;101574.44;;;17.19;66.10
68793;BME280;55778;54.346;10.210;2022-07-24T06:50:08;101561.69;;;17.34;66.70
68793;BME280;55778;54.346;10.210;2022-07-24T06:52:33;101562.09;;;17.63;67.23
68793;BME280;55778;54.346;10.210;2022-07-24T06:54:59;101562.81;;;17.81;66.23
68793;BME280;55778;54.346;10.210;2022-07-24T06:57:25;101564.69;;;17.89;63.68
68793;BME280;55778;54.346;10.210;2022-07-24T06:59:53;101553.81;;;18.04;63.16
68793;BME280;55778;54.346;10.210;2022-07-24T07:02:20;101558.28;;;18.13;63.30
68793;BME280;55778;54.346;10.210;2022-07-24T07:04:45;101557.59;;;18.19;63.07
68793;BME280;55778;54.346;10.210;2022-07-24T07:07:11;101559.59;;;18.33;62.78
68793;BME280;55778;54.346;10.210;2022-07-24T07:09:36;101557.53;;;18.35;62.11
68793;BME280;55778;54.346;10.210;2022-07-24T07:12:03;101561.81;;;18.53;61.74
68793;BME280;55778;54.346;10.210;2022-07-24T07:14:29;101552.38;;;18.78;61.60
68793;BME280;55778;54.346;10.210;2022-07-24T07:16:55;101558.16;;;18.99;60.33
68793;BME280;55778;54.346;10.210;2022-07-24T07:19:20;101556.72;;;19.11;60.40
68793;BME280;55778;54.346;10.210;2022-07-24T07:21:45;101548.16;;;19.29;59.78
68793;BME280;55778;54.346;10.210;2022-07-24T07:24:14;101557.03;;;19.47;58.60
68793;BME280;55778;54.346;10.210;2022-07-24T07:26:39;101556.41;;;19.37;58.80
68793;BME280;55778;54.346;10.210;2022-07-24T07:29:05;101554.19;;;19.32;59.11
68793;BME280;55778;54.346;10.210;2022-07-24T07:31:30;101559.19;;;19.59;58.56
68793;BME280;55778;54.346;10.210;2022-07-24T07:33:56;101560.59;;;19.93;58.10
68793;BME280;55778;54.346;10.210;2022-07-24T07:36:23;101558.16;;;19.98;57.38
68793;BME280;55778;54.346;10.210;2022-07-24T07:38:48;101565.34;;;20.07;58.02
68793;BME280;55778;54.346;10.210;2022-07-24T07:41:14;101552.41;;;20.22;58.12
68793;BME280;55778;54.346;10.210;2022-07-24T07:43:40;101555.75;;;20.17;56.78
68793;BME280;55778;54.346;10.210;2022-07-24T07:46:06;101547.06;;;19.83;57.61
68793;BME280;55778;54.346;10.210;2022-07-24T07:48:32;101550.28;;;19.87;57.57
68793;BME280;55778;54.346;10.210;2022-07-24T07:50:58;101544.50;;;19.59;58.92
68793;BME280;55778;54.346;10.210;2022-07-24T07:53:23;101543.44;;;19.60;58.28
68793;BME280;55778;54.346;10.210;2022-07-24T07:55:49;101548.72;;;20.07;58.68
68793;BME280;55778;54.346;10.210;2022-07-24T07:58:20;101543.66;;;20.47;57.48
68793;BME280;55778;54.346;10.210;2022-07-24T08:00:47;101547.16;;;20.85;56.01
68793;BME280;55778;54.346;10.210;2022-07-24T08:03:13;101538.94;;;20.62;56.10
68793;BME280;55778;54.346;10.210;2022-07-24T08:05:38;101535.50;;;21.25;54.92
68793;BME280;55778;54.346;10.210;2022-07-24T08:08:03;101531.19;;;21.37;55.47
68793;BME280;55778;54.346;10.210;2022-07-24T08:10:29;101533.34;;;21.41;53.49
68793;BME280;55778;54.346;10.210;2022-07-24T08:12:55;101535.34;;;21.68;54.49
68793;BME280;55778;54.346;10.210;2022-07-24T08:15:21;101534.00;;;21.79;53.47
68793;BME280;55778;54.346;10.210;2022-07-24T08:17:51;101535.47;;;21.60;53.83
68793;BME280;55778;54.346;10.210;2022-07-24T08:20:17;101537.66;;;21.86;53.20
68793;BME280;55778;54.346;10.210;2022-07-24T08:22:42;101532.72;;;22.09;53.41
68793;BME280;55778;54.346;10.210;2022-07-24T08:25:08;101543.09;;;21.94;53.15
68793;BME280;55778;54.346;10.210;2022-07-24T08:27:37;101535.34;;;21.68;54.58
68793;BME280;55778;54.346;10.210;2022-07-24T08:30:04;101536.56;;;22.08;53.18
68793;BME280;55778;54.346;10.210;2022-07-24T08:32:30;101537.94;;;22.19;52.69
68793;BME280;55778;54.346;10.210;2022-07-24T08:34:56;101525.66;;;22.07;53.31
68793;BME280;55778;54.346;10.210;2022-07-24T08:37:21;101523.69;;;23.03;50.87
68793;BME280;55778;54.346;10.210;2022-07-24T08:39:46;101526.28;;;23.11;50.27
68793;BME280;55778;54.346;10.210;2022-07-24T08:42:12;101526.00;;;23.46;50.48
68793;BME280;55778;54.346;10.210;2022-07-24T08:44:39;101525.56;;;23.43;49.98
68793;BME280;55778;54.346;10.210;2022-07-24T08:47:06;101524.13;;;23.80;50.58
68793;BME280;55778;54.346;10.210;2022-07-24T08:49:35;101522.44;;;23.98;49.01
68793;BME280;55778;54.346;10.210;2022-07-24T08:52:04;101526.91;;;23.99;47.99
68793;BME280;55778;54.346;10.210;2022-07-24T08:54:34;101520.47;;;23.79;47.55
68793;BME280;55778;54.346;10.210;2022-07-24T08:56:59;101521.72;;;23.57;48.62
68793;BME280;55778;54.346;10.210;2022-07-24T08:59:25;101525.22;;;23.98;47.22
68793;BME280;55778;54.346;10.210;2022-07-24T09:01:50;101512.53;;;23.89;48.18
68793;BME280;55778;54.346;10.210;2022-07-24T09:07:02;101521.72;;;23.64;48.44
68793;BME280;55778;54.346;10.210;2022-07-24T09:09:28;101523.69;;;24.02;48.32
68793;BME280;55778;54.346;10.210;2022-07-24T09:12:13;101512.50;;;24.48;46.25
68793;BME280;55778;54.346;10.210;2022-07-24T09:14:45;101515.31;;;24.41;45.62
68793;BME280;55778;54.346;10.210;2022-07-24T09:17:19;101511.00;;;24.45;45.08
68793;BME280;55778;54.346;10.210;2022-07-24T09:19:58;101500.28;;;24.42;46.09
68793;BME280;55778;54.346;10.210;2022-07-24T09:27:38;101497.06;;;25.09;44.01
68793;BME280;55778;54.346;10.210;2022-07-24T09:30:05;101489.66;;;25.27;43.04
68793;BME280;55778;54.346;10.210;2022-07-24T09:32:32;101487.72;;;25.34;43.11
68793;BME280;55778;54.346;10.210;2022-07-24T09:34:57;101481.28;;;25.65;42.96
68793;BME280;55778;54.346;10.210;2022-07-24T09:37:26;101487.03;;;25.70;42.11
68793;BME280;55778;54.346;10.210;2022-07-24T09:39:51;101485.88;;;25.78;42.19
68793;BME280;55778;54.346;10.210;2022-07-24T09:42:17;101486.53;;;26.04;41.82
68793;BME280;55778;54.346;10.210;2022-07-24T09:44:44;101483.84;;;25.67;42.16
68793;BME280;55778;54.346;10.210;2022-07-24T09:47:11;101473.84;;;25.77;42.49
68793;BME280;55778;54.346;10.210;2022-07-24T09:49:39;101477.41;;;25.91;42.69
68793;BME280;55778;54.346;10.210;2022-07-24T09:54:32;101478.59;;;25.77;42.15
68793;BME280;55778;54.346;10.210;2022-07-24T09:59:40;101468.34;;;26.56;41.51
68793;BME280;55778;54.346;10.210;2022-07-24T10:02:07;101463.31;;;27.30;40.30
68793;BME280;55778;54.346;10.210;2022-07-24T10:04:34;101468.16;;;27.23;40.21
68793;BME280;55778;54.346;10.210;2022-07-24T10:07:02;101462.66;;;26.69;40.84
68793;BME280;55778;54.346;10.210;2022-07-24T10:09:28;101466.94;;;26.47;41.48
68793;BME280;55778;54.346;10.210;2022-07-24T10:11:57;101461.84;;;26.26;41.82
68793;BME280;55778;54.346;10.210;2022-07-24T10:14:24;101454.53;;;26.61;41.95
68793;BME280;55778;54.346;10.210;2022-07-24T10:17:01;101462.78;;;27.21;41.38
68793;BME280;55778;54.346;10.210;2022-07-24T10:19:38;101462.25;;;27.31;39.95
68793;BME280;55778;54.346;10.210;2022-07-24T10:22:09;101467.81;;;27.01;41.04
68793;BME280;55778;54.346;10.210;2022-07-24T10:27:36;101462.06;;;26.60;41.52
68793;BME280;55778;54.346;10.210;2022-07-24T10:30:04;101458.38;;;26.66;41.98
68793;BME280;55778;54.346;10.210;2022-07-24T10:32:31;101446.63;;;26.58;41.64
68793;BME280;55778;54.346;10.210;2022-07-24T10:35:18;101453.00;;;27.31;40.38
68793;BME280;55778;54.346;10.210;2022-07-24T10:38:05;101448.72;;;27.28;41.18
68793;BME280;55778;54.346;10.210;2022-07-24T10:40:54;101439.97;;;27.36;41.41
68793;BME280;55778;54.346;10.210;2022-07-24T10:43:21;101448.38;;;27.36;40.15
68793;BME280;55778;54.346;10.210;2022-07-24T10:53:29;101423.00;;;27.72;39.45
68793;BME280;55778;54.346;10.210;2022-07-24T11:04:35;101415.09;;;28.38;37.98
68793;BME280;55778;54.346;10.210;2022-07-24T11:07:08;101414.66;;;28.18;38.47
68793;BME280;55778;54.346;10.210;2022-07-24T11:09:54;101411.44;;;28.26;37.24
68793;BME280;55778;54.346;10.210;2022-07-24T11:12:32;101395.13;;;28.35;37.58
68793;BME280;55778;54.346;10.210;2022-07-24T11:15:04;101402.22;;;28.77;37.49
68793;BME280;55778;54.346;10.210;2022-07-24T11:17:48;101400.59;;;29.21;36.00
68793;BME280;55778;54.346;10.210;2022-07-24T11:20:16;101386.06;;;29.40;35.87
68793;BME280;55778;54.346;10.210;2022-07-24T11:22:48;101391.00;;;29.33;35.60
68793;BME280;55778;54.346;10.210;2022-07-24T11:25:25;101383.00;;;29.58;35.30
68793;BME280;55778;54.346;10.210;2022-07-24T11:28:13;101382.59;;;29.05;36.98
68793;BME280;55778;54.346;10.210;2022-07-24T11:30:43;101371.34;;;28.77;36.46
68793;BME280;55778;54.346;10.210;2022-07-24T11:33:19;101366.28;;;28.90;36.25
68793;BME280;55778;54.346;10.210;2022-07-24T11:35:45;101362.28;;;28.86;37.16
68793;BME280;55778;54.346;10.210;2022-07-24T11:38:10;101363.91;;;29.11;37.11
68793;BME280;55778;54.346;10.210;2022-07-24T11:40:36;101355.31;;;29.34;35.59
68793;BME280;55778;54.346;10.210;2022-07-24T11:43:05;101358.47;;;29.87;34.84
68793;BME280;55778;54.346;10.210;2022-07-24T11:45:34;101333.94;;;29.99;35.47
68793;BME280;55778;54.346;10.210;2022-07-24T11:47:59;101348.13;;;29.71;34.46
68793;BME280;55778;54.346;10.210;2022-07-24T11:50:26;101349.09;;;29.98;34.02
68793;BME280;55778;54.346;10.210;2022-07-24T11:52:52;101342.31;;;30.15;33.90
68793;BME280;55778;54.346;10.210;2022-07-24T11:55:21;101336.34;;;30.50;32.65
68793;BME280;55778;54.346;10.210;2022-07-24T11:57:52;101338.66;;;30.15;33.95
68793;BME280;55778;54.346;10.210;2022-07-24T12:00:21;101343.25;;;29.83;34.62
68793;BME280;55778;54.346;10.210;2022-07-24T12:02:52;101338.41;;;29.78;35.02
68793;BME280;55778;54.346;10.210;2022-07-24T12:05:35;101335.47;;;29.07;35.41
68793;BME280;55778;54.346;10.210;2022-07-24T12:08:14;101328.03;;;29.62;35.38
68793;BME280;55778;54.346;10.210;2022-07-24T12:10:40;101315.84;;;30.11;34.83
68793;BME280;55778;54.346;10.210;2022-07-24T12:13:06;101319.50;;;29.41;34.97
68793;BME280;55778;54.346;10.210;2022-07-24T12:15:31;101316.19;;;29.27;35.59
68793;BME280;55778;54.346;10.210;2022-07-24T12:17:59;101313.50;;;29.87;35.23
68793;BME280;55778;54.346;10.210;2022-07-24T12:20:28;101305.56;;;30.00;34.12
68793;BME280;55778;54.346;10.210;2022-07-24T12:22:55;101298.16;;;29.94;34.37
68793;BME280;55778;54.346;10.210;2022-07-24T12:25:22;101297.47;;;30.47;33.57
68793;BME280;55778;54.346;10.210;2022-07-24T12:27:47;101292.47;;;31.02;33.43
68793;BME280;55778;54.346;10.210;2022-07-24T12:30:18;101292.22;;;30.77;33.29
68793;BME280;55778;54.346;10.210;2022-07-24T12:32:57;101295.75;;;30.46;33.93
68793;BME280;55778;54.346;10.210;2022-07-24T12:35:23;101292.69;;;30.47;33.57
68793;BME280;55778;54.346;10.210;2022-07-24T12:37:50;101288.66;;;30.38;33.45
68793;BME280;55778;54.346;10.210;2022-07-24T12:40:30;101290.75;;;29.67;35.13
68793;BME280;55778;54.346;10.210;2022-07-24T12:43:11;101292.53;;;29.94;34.44
68793;BME280;55778;54.346;10.210;2022-07-24T12:45:38;101288.16;;;30.03;34.33
68793;BME280;55778;54.346;10.210;2022-07-24T12:48:09;101297.03;;;29.41;35.90
68793;BME280;55778;54.346;10.210;2022-07-24T12:50:37;101306.09;;;28.98;36.33
68793;BME280;55778;54.346;10.210;2022-07-24T12:53:07;101293.63;;;28.77;36.79
68793;BME280;55778;54.346;10.210;2022-07-24T12:55:34;101287.16;;;29.22;36.28
68793;BME280;55778;54.346;10.210;2022-07-24T12:58:04;101276.88;;;29.11;36.31
68793;BME280;55778;54.346;10.210;2022-07-24T13:00:30;101280.78;;;29.43;36.69
68793;BME280;55778;54.346;10.210;2022-07-24T13:02:56;101271.56;;;30.45;34.42
68793;BME280;55778;54.346;10.210;2022-07-24T13:05:41;101262.97;;;30.13;35.28
68793;BME280;55778;54.346;10.210;2022-07-24T13:08:10;101260.50;;;29.74;35.65
68793;BME280;55778;54.346;10.210;2022-07-24T13:10:36;101256.41;;;30.03;34.89
68793;BME280;55778;54.346;10.210;2022-07-24T13:13:02;101263.25;;;29.69;35.18